createdAt,value
2022-10-17T04:02:09.357Z,99256.88
2022-10-17T04:06:21.531Z,99260.00
2022-10-17T04:10:33.823Z,99258.31
2022-10-17T04:14:45.442Z,99262.69
2022-10-17T04:18:58.793Z,99253.31
2022-10-17T04:23:13.112Z,99257.28
2022-10-17T04:27:25.520Z,99264.59
2022-10-17T04:31:38.599Z,99256.09
2022-10-17T04:36:02.396Z,99248.28
2022-10-17T04:40:15.101Z,99261.41
2022-10-17T04:44:26.740Z,99267.69
2022-10-17T04:48:39.163Z,99273.00
2022-10-17T04:52:50.839Z,99278.38
2022-10-17T04:57:02.708Z,99276.63
2022-10-17T05:01:18.084Z,99275.97
2022-10-17T05:05:37.504Z,99275.00
2022-10-17T05:09:49.156Z,99281.72
2022-10-17T05:14:03.013Z,99285.84
2022-10-17T05:18:16.412Z,99285.84
2022-10-17T05:22:29.123Z,99296.31
2022-10-17T05:26:42.318Z,99302.69
2022-10-17T05:30:54.064Z,99300.91
2022-10-17T05:35:06.304Z,99289.44
2022-10-17T05:39:19.688Z,99299.63
2022-10-17T05:43:33.638Z,99286.13
2022-10-17T05:47:45.232Z,99294.72
2022-10-17T05:51:57.079Z,99294.38
2022-10-17T05:56:12.698Z,99288.78
2022-10-17T06:00:24.365Z,99283.66
2022-10-17T06:04:45.835Z,99287.06
2022-10-17T06:08:58.742Z,99297.69
2022-10-17T06:13:17.541Z,99307.44
2022-10-17T06:17:32.372Z,99311.97
2022-10-17T06:21:44.636Z,99303.25
2022-10-17T06:26:06.043Z,99319.66
2022-10-17T06:30:18.123Z,99317.84
2022-10-17T06:34:30.366Z,99322.75
2022-10-17T06:38:42.167Z,99325.69
2022-10-17T06:43:02.664Z,99337.81
2022-10-17T06:47:33.180Z,99341.03
2022-10-17T06:51:51.763Z,99352.09
2022-10-17T06:56:09.332Z,99362.44
2022-10-17T07:00:55.426Z,99368.59
2022-10-17T07:05:10.485Z,99367.31
2022-10-17T07:09:22.896Z,99371.56
2022-10-17T07:13:38.961Z,99379.66
2022-10-17T07:17:51.840Z,99386.84
2022-10-17T07:22:04.493Z,99390.53
2022-10-17T07:26:19.081Z,99380.13
2022-10-17T07:30:32.966Z,99381.81
2022-10-17T07:34:49.241Z,99389.63
2022-10-17T07:39:00.886Z,99392.09
2022-10-17T07:43:14.106Z,99399.41
2022-10-17T07:47:25.713Z,99412.03
2022-10-17T07:51:38.332Z,99408.44
2022-10-17T07:55:51.305Z,99398.28
2022-10-17T08:00:03.067Z,99399.31
2022-10-17T08:04:24.266Z,99397.50
2022-10-17T08:08:35.755Z,99398.16
2022-10-17T08:12:47.295Z,99402.66
2022-10-17T08:16:58.797Z,99409.38
2022-10-17T08:21:12.903Z,99410.22
2022-10-17T08:25:24.903Z,99407.00
2022-10-17T08:29:36.665Z,99407.78
2022-10-17T08:33:49.917Z,99406.56
2022-10-17T08:38:04.491Z,99406.16
2022-10-17T08:42:57.442Z,99418.00
2022-10-17T08:47:23.235Z,99420.78
2022-10-17T08:51:40.612Z,99413.06
2022-10-17T08:55:54.472Z,99423.66
2022-10-17T09:00:22.517Z,99418.13
2022-10-17T09:04:46.152Z,99418.13
2022-10-17T09:09:21.656Z,99421.56
2022-10-17T09:14:10.494Z,99425.22
2022-10-17T09:18:35.064Z,99424.38
2022-10-17T09:27:31.291Z,99437.53
2022-10-17T09:31:51.361Z,99449.53
2022-10-17T09:36:05.747Z,99461.31
2022-10-17T09:40:31.674Z,99467.00
2022-10-17T09:44:58.148Z,99472.25
2022-10-17T09:49:18.506Z,99469.34
2022-10-17T09:53:35.989Z,99473.31
2022-10-17T09:57:57.299Z,99463.13
2022-10-17T10:02:18.766Z,99475.38
2022-10-17T10:06:30.328Z,99486.38
2022-10-17T10:10:43.297Z,99487.53
2022-10-17T10:14:55.497Z,99486.28
2022-10-17T10:19:21.613Z,99483.56
2022-10-17T10:23:33.936Z,99494.53
2022-10-17T10:27:46.919Z,99497.50
2022-10-17T10:32:07.177Z,99499.91
2022-10-17T10:36:23.777Z,99500.22
2022-10-17T10:40:44.949Z,99503.06
2022-10-17T10:45:23.688Z,99519.28
2022-10-17T10:49:41.817Z,99517.19
2022-10-17T10:53:56.200Z,99523.03
2022-10-17T10:58:32.715Z,99517.41
2022-10-17T11:02:54.430Z,99523.13
2022-10-17T11:07:24.241Z,99518.19
2022-10-17T11:11:40.585Z,99502.94
2022-10-17T11:16:29.461Z,99512.66
2022-10-17T11:20:58.167Z,99523.75
2022-10-17T11:25:12.619Z,99521.00
2022-10-17T11:29:34.147Z,99511.94
2022-10-17T11:33:51.564Z,99526.00
2022-10-17T11:38:07.872Z,99521.09
2022-10-17T11:42:55.446Z,99525.78
2022-10-17T11:47:31.660Z,99519.84
2022-10-17T11:52:03.661Z,99511.94
2022-10-17T11:56:20.240Z,99507.88
2022-10-17T12:00:58.207Z,99507.88
2022-10-17T12:05:31.914Z,99502.75
2022-10-17T12:09:49.801Z,99506.38
2022-10-17T12:14:05.812Z,99514.72
2022-10-17T12:18:18.050Z,99512.94
2022-10-17T12:22:29.613Z,99506.72
2022-10-17T12:26:41.147Z,99507.91
2022-10-17T12:30:57.879Z,99506.53
2022-10-17T12:35:20.571Z,99503.06
2022-10-17T12:39:35.008Z,99500.50
2022-10-17T12:43:52.427Z,99500.34
2022-10-17T12:48:04.136Z,99498.97
2022-10-17T12:52:26.642Z,99504.06
2022-10-17T12:56:42.403Z,99508.25
2022-10-17T13:01:22.467Z,99497.06
2022-10-17T13:05:35.485Z,99499.72
2022-10-17T13:09:48.462Z,99499.03
2022-10-17T13:14:03.292Z,99510.16
2022-10-17T13:18:25.471Z,99502.97
2022-10-17T13:22:45.046Z,99512.72
2022-10-17T13:26:57.149Z,99514.78
2022-10-17T13:31:27.985Z,99511.97
2022-10-17T13:36:00.554Z,99518.09
2022-10-17T13:44:59.207Z,99521.59
2022-10-17T13:49:27.452Z,99511.97
2022-10-17T13:53:43.777Z,99519.16
2022-10-17T13:57:55.348Z,99527.00
2022-10-17T14:02:15.116Z,99527.00
2022-10-17T14:06:29.436Z,99524.94
2022-10-17T14:10:43.231Z,99527.16
2022-10-17T14:15:11.178Z,99528.47
2022-10-17T14:19:33.156Z,99535.47
2022-10-17T14:23:44.733Z,99527.63
2022-10-17T14:28:09.356Z,99526.72
2022-10-17T14:32:22.334Z,99526.81
2022-10-17T14:36:39.433Z,99530.28
2022-10-17T14:41:47.684Z,99531.50
2022-10-17T14:46:02.870Z,99531.94
2022-10-17T14:50:14.310Z,99531.78
2022-10-17T14:54:30.373Z,99533.38
2022-10-17T14:58:41.867Z,99551.44
2022-10-17T15:02:55.765Z,99549.81
2022-10-17T15:07:07.316Z,99546.56
2022-10-17T15:11:18.885Z,99552.59
2022-10-17T15:15:31.577Z,99556.75
2022-10-17T15:19:43.110Z,99567.78
2022-10-17T15:23:54.833Z,99570.28
2022-10-17T15:28:06.454Z,99571.75
2022-10-17T15:32:17.999Z,99580.44
2022-10-17T15:36:34.155Z,99577.47
2022-10-17T15:40:48.885Z,99587.78
2022-10-17T15:45:00.468Z,99588.94
2022-10-17T15:49:14.466Z,99588.19
2022-10-17T15:53:25.979Z,99589.84
2022-10-17T15:57:44.121Z,99589.94
2022-10-17T16:01:55.681Z,99587.09
2022-10-17T16:06:10.727Z,99586.94
2022-10-17T16:10:26.038Z,99592.06
2022-10-17T16:14:37.645Z,99599.81
2022-10-17T16:18:49.321Z,99600.06
2022-10-17T16:23:02.952Z,99602.56
2022-10-17T16:27:14.461Z,99607.28
2022-10-17T16:31:29.351Z,99606.06
2022-10-17T16:35:40.934Z,99601.41
2022-10-17T16:39:53.619Z,99603.03
2022-10-17T16:44:08.443Z,99600.41
2022-10-17T16:48:20.120Z,99604.28
2022-10-17T16:52:32.013Z,99603.66
2022-10-17T16:56:43.840Z,99613.34
2022-10-17T17:00:55.430Z,99613.94
2022-10-17T17:05:07.381Z,99620.63
2022-10-17T17:09:18.881Z,99617.53
2022-10-17T17:13:30.412Z,99631.56
2022-10-17T17:17:50.645Z,99628.06
2022-10-17T17:22:03.847Z,99630.66
2022-10-17T17:26:21.449Z,99629.44
2022-10-17T17:30:34.443Z,99637.34
2022-10-17T17:34:45.958Z,99633.06
2022-10-17T17:38:59.212Z,99641.16
2022-10-17T17:43:10.711Z,99633.38
2022-10-17T17:47:22.219Z,99630.88
2022-10-17T17:51:34.669Z,99646.66
2022-10-17T17:55:46.160Z,99652.31
2022-10-17T17:59:57.662Z,99659.00
2022-10-17T18:04:09.727Z,99654.38
2022-10-17T18:08:21.214Z,99688.13
2022-10-17T18:12:34.382Z,99681.28
2022-10-17T18:16:45.896Z,99688.19
2022-10-17T18:21:01.253Z,99681.97
2022-10-17T18:25:12.814Z,99684.88
2022-10-17T18:29:24.337Z,99681.63
2022-10-17T18:33:36.024Z,99684.09
2022-10-17T18:37:47.629Z,99685.72
2022-10-17T18:41:59.158Z,99687.34
2022-10-17T18:46:24.792Z,99681.47
2022-10-17T18:50:38.840Z,99683.22
2022-10-17T18:54:50.435Z,99676.69
2022-10-17T18:59:01.948Z,99678.69
2022-10-17T19:03:13.434Z,99679.09
2022-10-17T19:07:24.933Z,99683.94
2022-10-17T19:11:38.048Z,99684.69
2022-10-17T19:15:49.557Z,99681.25
2022-10-17T19:20:01.073Z,99676.16
2022-10-17T19:24:30.669Z,99673.72
2022-10-17T19:28:42.752Z,99674.53
2022-10-17T19:32:54.295Z,99664.09
2022-10-17T19:37:05.813Z,99654.28
2022-10-17T19:41:17.295Z,99652.78
2022-10-17T19:45:28.809Z,99650.91
2022-10-17T19:49:40.375Z,99659.41
2022-10-17T19:53:54.052Z,99654.06
2022-10-17T19:58:05.606Z,99647.34
2022-10-17T20:02:17.152Z,99649.97
2022-10-17T20:06:28.707Z,99644.91
2022-10-17T20:10:40.657Z,99645.44
2022-10-17T20:14:52.156Z,99649.28
2022-10-17T20:19:07.810Z,99654.56
2022-10-17T20:23:19.342Z,99658.22
2022-10-17T20:27:30.848Z,99663.66
2022-10-17T20:31:43.936Z,99671.19
2022-10-17T20:35:55.462Z,99671.19
2022-10-17T20:40:34.569Z,99671.41
2022-10-17T20:44:39.102Z,99672.41
2022-10-17T20:48:54.448Z,99674.84
2022-10-17T20:53:34.997Z,99678.06
2022-10-17T20:57:37.795Z,99680.50
2022-10-17T21:01:49.396Z,99687.78
2022-10-17T21:06:00.947Z,99687.97
2022-10-17T21:10:34.367Z,99691.81
2022-10-17T21:14:43.939Z,99699.06
2022-10-17T21:18:56.603Z,99700.28
2022-10-17T21:23:08.104Z,99701.09
2022-10-17T21:27:19.664Z,99697.66
